sensor_id;sensor_type;location;lat;lon;timestamp;P1;durP1;ratioP1;P2;durP2;ratioP2
70975;SDS011;58635;51.198;6.010;2022-11-27T00:01:15;12.10;;;4.70;;
70975;SDS011;58635;51.198;6.010;2022-11-27T00:03:43;11.05;;;4.43;;
70975;SDS011;58635;51.198;6.010;2022-11-27T00:06:12;15.40;;;5.00;;
70975;SDS011;58635;51.198;6.010;2022-11-27T00:08:40;9.93;;;4.60;;
70975;SDS011;58635;51.198;6.010;2022-11-27T00:11:07;10.20;;;4.43;;
70975;SDS011;58635;51.198;6.010;2022-11-27T00:13:34;11.65;;;5.30;;
70975;SDS011;58635;51.198;6.010;2022-11-27T00:16:00;10.15;;;5.80;;
70975;SDS011;58635;51.198;6.010;2022-11-27T00:18:25;9.50;;;5.05;;
70975;SDS011;58635;51.198;6.010;2022-11-27T00:20:51;13.60;;;5.40;;
70975;SDS011;58635;51.198;6.010;2022-11-27T00:23:16;12.60;;;5.32;;
70975;SDS011;58635;51.198;6.010;2022-11-27T00:25:48;12.38;;;5.53;;
70975;SDS011;58635;51.198;6.010;2022-11-27T00:28:17;14.82;;;5.63;;
70975;SDS011;58635;51.198;6.010;2022-11-27T00:30:43;12.38;;;5.63;;
70975;SDS011;58635;51.198;6.010;2022-11-27T00:33:08;13.13;;;5.80;;
70975;SDS011;58635;51.198;6.010;2022-11-27T00:35:34;12.90;;;5.40;;
70975;SDS011;58635;51.198;6.010;2022-11-27T00:37:59;13.70;;;5.47;;
70975;SDS011;58635;51.198;6.010;2022-11-27T00:40:24;14.20;;;5.47;;
70975;SDS011;58635;51.198;6.010;2022-11-27T00:42:50;13.43;;;5.93;;
70975;SDS011;58635;51.198;6.010;2022-11-27T00:45:15;13.65;;;5.60;;
70975;SDS011;58635;51.198;6.010;2022-11-27T00:47:44;11.77;;;5.97;;
70975;SDS011;58635;51.198;6.010;2022-11-27T00:50:09;12.70;;;6.38;;
70975;SDS011;58635;51.198;6.010;2022-11-27T00:52:35;11.65;;;6.03;;
70975;SDS011;58635;51.198;6.010;2022-11-27T00:55:00;12.77;;;6.10;;
70975;SDS011;58635;51.198;6.010;2022-11-27T00:57:25;14.52;;;6.25;;
70975;SDS011;58635;51.198;6.010;2022-11-27T00:59:51;16.65;;;5.90;;
70975;SDS011;58635;51.198;6.010;2022-11-27T01:02:16;14.65;;;6.78;;
70975;SDS011;58635;51.198;6.010;2022-11-27T01:04:44;11.95;;;5.93;;
70975;SDS011;58635;51.198;6.010;2022-11-27T01:07:10;13.05;;;6.00;;
70975;SDS011;58635;51.198;6.010;2022-11-27T01:09:36;13.02;;;5.82;;
70975;SDS011;58635;51.198;6.010;2022-11-27T01:12:01;13.45;;;5.80;;
70975;SDS011;58635;51.198;6.010;2022-11-27T01:14:27;14.00;;;5.85;;
70975;SDS011;58635;51.198;6.010;2022-11-27T01:16:53;12.00;;;6.03;;
70975;SDS011;58635;51.198;6.010;2022-11-27T01:19:18;12.85;;;6.18;;
70975;SDS011;58635;51.198;6.010;2022-11-27T01:21:44;13.10;;;5.57;;
70975;SDS011;58635;51.198;6.010;2022-11-27T01:24:11;13.45;;;6.07;;
70975;SDS011;58635;51.198;6.010;2022-11-27T01:26:37;12.90;;;6.00;;
70975;SDS011;58635;51.198;6.010;2022-11-27T01:29:03;13.80;;;5.55;;
70975;SDS011;58635;51.198;6.010;2022-11-27T01:31:29;12.73;;;5.75;;
70975;SDS011;58635;51.198;6.010;2022-11-27T01:33:59;11.23;;;5.32;;
70975;SDS011;58635;51.198;6.010;2022-11-27T01:36:27;11.52;;;5.35;;
70975;SDS011;58635;51.198;6.010;2022-11-27T01:38:53;9.38;;;4.80;;
70975;SDS011;58635;51.198;6.010;2022-11-27T01:41:23;10.70;;;4.00;;
70975;SDS011;58635;51.198;6.010;2022-11-27T01:51:36;10.55;;;4.00;;
70975;SDS011;58635;51.198;6.010;2022-11-27T01:54:11;10.75;;;4.10;;
70975;SDS011;58635;51.198;6.010;2022-11-27T01:56:38;9.65;;;4.20;;
70975;SDS011;58635;51.198;6.010;2022-11-27T01:59:07;10.60;;;3.78;;
70975;SDS011;58635;51.198;6.010;2022-11-27T02:01:33;11.65;;;3.63;;
70975;SDS011;58635;51.198;6.010;2022-11-27T02:04:00;10.75;;;3.42;;
70975;SDS011;58635;51.198;6.010;2022-11-27T02:06:26;13.27;;;4.10;;
70975;SDS011;58635;51.198;6.010;2022-11-27T02:08:52;7.25;;;3.38;;
70975;SDS011;58635;51.198;6.010;2022-11-27T02:14:43;11.52;;;3.50;;
70975;SDS011;58635;51.198;6.010;2022-11-27T02:17:21;14.07;;;3.90;;
70975;SDS011;58635;51.198;6.010;2022-11-27T02:23:12;9.68;;;3.15;;
70975;SDS011;58635;51.198;6.010;2022-11-27T02:29:05;7.18;;;2.88;;
70975;SDS011;58635;51.198;6.010;2022-11-27T02:34:27;10.40;;;3.35;;
70975;SDS011;58635;51.198;6.010;2022-11-27T02:37:14;7.57;;;2.80;;
70975;SDS011;58635;51.198;6.010;2022-11-27T02:42:26;8.82;;;2.67;;
70975;SDS011;58635;51.198;6.010;2022-11-27T02:44:58;6.65;;;2.50;;
70975;SDS011;58635;51.198;6.010;2022-11-27T02:47:27;8.73;;;2.88;;
70975;SDS011;58635;51.198;6.010;2022-11-27T02:49:54;7.10;;;2.47;;
70975;SDS011;58635;51.198;6.010;2022-11-27T02:52:22;9.60;;;2.85;;
70975;SDS011;58635;51.198;6.010;2022-11-27T02:54:50;8.32;;;2.67;;
70975;SDS011;58635;51.198;6.010;2022-11-27T02:57:19;9.32;;;3.05;;
70975;SDS011;58635;51.198;6.010;2022-11-27T02:59:47;8.20;;;2.60;;
70975;SDS011;58635;51.198;6.010;2022-11-27T03:02:19;11.98;;;2.65;;
70975;SDS011;58635;51.198;6.010;2022-11-27T03:04:51;13.15;;;2.92;;
70975;SDS011;58635;51.198;6.010;2022-11-27T03:10:09;7.63;;;2.53;;
70975;SDS011;58635;51.198;6.010;2022-11-27T03:15:07;8.10;;;2.65;;
70975;SDS011;58635;51.198;6.010;2022-11-27T03:17:48;7.13;;;2.80;;
70975;SDS011;58635;51.198;6.010;2022-11-27T03:20:22;11.57;;;2.42;;
70975;SDS011;58635;51.198;6.010;2022-11-27T03:22:54;8.35;;;2.67;;
70975;SDS011;58635;51.198;6.010;2022-11-27T03:25:20;13.93;;;3.08;;
70975;SDS011;58635;51.198;6.010;2022-11-27T03:27:54;10.07;;;3.20;;
70975;SDS011;58635;51.198;6.010;2022-11-27T03:30:23;6.72;;;2.50;;
70975;SDS011;58635;51.198;6.010;2022-11-27T03:32:48;12.55;;;3.05;;
70975;SDS011;58635;51.198;6.010;2022-11-27T03:35:15;10.55;;;3.20;;
70975;SDS011;58635;51.198;6.010;2022-11-27T03:37:42;8.57;;;2.88;;
70975;SDS011;58635;51.198;6.010;2022-11-27T03:40:08;8.82;;;2.90;;
70975;SDS011;58635;51.198;6.010;2022-11-27T03:42:53;11.85;;;3.10;;
70975;SDS011;58635;51.198;6.010;2022-11-27T03:59:29;12.45;;;4.45;;
70975;SDS011;58635;51.198;6.010;2022-11-27T04:02:00;9.98;;;4.43;;
70975;SDS011;58635;51.198;6.010;2022-11-27T04:04:25;12.18;;;4.78;;
70975;SDS011;58635;51.198;6.010;2022-11-27T04:06:51;10.50;;;4.55;;
70975;SDS011;58635;51.198;6.010;2022-11-27T04:09:16;11.68;;;4.70;;
70975;SDS011;58635;51.198;6.010;2022-11-27T04:11:41;10.75;;;4.90;;
70975;SDS011;58635;51.198;6.010;2022-11-27T04:14:07;10.30;;;5.15;;
70975;SDS011;58635;51.198;6.010;2022-11-27T04:16:32;13.13;;;4.78;;
70975;SDS011;58635;51.198;6.010;2022-11-27T04:18:58;13.52;;;5.00;;
70975;SDS011;58635;51.198;6.010;2022-11-27T04:21:23;13.18;;;5.63;;
70975;SDS011;58635;51.198;6.010;2022-11-27T04:23:49;12.82;;;5.97;;
70975;SDS011;58635;51.198;6.010;2022-11-27T04:26:14;12.43;;;5.10;;
70975;SDS011;58635;51.198;6.010;2022-11-27T04:28:40;12.07;;;5.60;;
70975;SDS011;58635;51.198;6.010;2022-11-27T04:31:05;12.52;;;5.93;;
70975;SDS011;58635;51.198;6.010;2022-11-27T04:33:30;10.20;;;5.45;;
70975;SDS011;58635;51.198;6.010;2022-11-27T04:35:56;10.82;;;5.63;;
70975;SDS011;58635;51.198;6.010;2022-11-27T04:38:21;12.07;;;5.82;;
70975;SDS011;58635;51.198;6.010;2022-11-27T04:40:47;9.80;;;5.55;;
70975;SDS011;58635;51.198;6.010;2022-11-27T04:43:12;13.93;;;6.13;;
70975;SDS011;58635;51.198;6.010;2022-11-27T04:45:38;13.93;;;5.82;;
70975;SDS011;58635;51.198;6.010;2022-11-27T04:48:04;14.10;;;5.95;;
70975;SDS011;58635;51.198;6.010;2022-11-27T04:50:29;12.10;;;5.85;;
70975;SDS011;58635;51.198;6.010;2022-11-27T04:52:55;10.95;;;5.53;;
70975;SDS011;58635;51.198;6.010;2022-11-27T04:55:21;9.55;;;5.22;;
70975;SDS011;58635;51.198;6.010;2022-11-27T04:57:46;12.07;;;5.63;;
70975;SDS011;58635;51.198;6.010;2022-11-27T05:00:12;11.00;;;5.35;;
70975;SDS011;58635;51.198;6.010;2022-11-27T05:02:38;11.40;;;5.00;;
70975;SDS011;58635;51.198;6.010;2022-11-27T05:05:04;15.38;;;5.88;;
70975;SDS011;58635;51.198;6.010;2022-11-27T05:07:29;10.57;;;6.18;;
70975;SDS011;58635;51.198;6.010;2022-11-27T05:09:55;12.35;;;5.90;;
70975;SDS011;58635;51.198;6.010;2022-11-27T05:12:20;13.68;;;6.65;;
70975;SDS011;58635;51.198;6.010;2022-11-27T05:14:46;12.90;;;6.20;;
70975;SDS011;58635;51.198;6.010;2022-11-27T05:17:12;12.18;;;6.50;;
70975;SDS011;58635;51.198;6.010;2022-11-27T05:19:37;14.77;;;7.50;;
70975;SDS011;58635;51.198;6.010;2022-11-27T05:22:03;13.63;;;6.28;;
70975;SDS011;58635;51.198;6.010;2022-11-27T05:24:29;12.07;;;6.45;;
70975;SDS011;58635;51.198;6.010;2022-11-27T05:26:55;10.93;;;6.15;;
70975;SDS011;58635;51.198;6.010;2022-11-27T05:29:20;12.95;;;6.72;;
70975;SDS011;58635;51.198;6.010;2022-11-27T05:31:46;16.02;;;7.38;;
70975;SDS011;58635;51.198;6.010;2022-11-27T05:34:12;14.20;;;7.00;;
70975;SDS011;58635;51.198;6.010;2022-11-27T05:36:38;12.63;;;7.00;;
70975;SDS011;58635;51.198;6.010;2022-11-27T05:39:05;12.57;;;6.55;;
70975;SDS011;58635;51.198;6.010;2022-11-27T05:41:32;14.88;;;6.70;;
70975;SDS011;58635;51.198;6.010;2022-11-27T05:43:58;13.48;;;6.82;;
70975;SDS011;58635;51.198;6.010;2022-11-27T05:46:23;12.93;;;7.28;;
70975;SDS011;58635;51.198;6.010;2022-11-27T05:48:49;10.85;;;6.30;;
70975;SDS011;58635;51.198;6.010;2022-11-27T05:51:14;10.82;;;6.22;;
70975;SDS011;58635;51.198;6.010;2022-11-27T05:53:41;10.13;;;5.28;;
70975;SDS011;58635;51.198;6.010;2022-11-27T05:56:07;10.65;;;5.70;;
70975;SDS011;58635;51.198;6.010;2022-11-27T05:58:38;11.95;;;5.60;;
70975;SDS011;58635;51.198;6.010;2022-11-27T06:01:05;13.95;;;5.63;;
70975;SDS011;58635;51.198;6.010;2022-11-27T06:03:31;11.52;;;5.72;;
70975;SDS011;58635;51.198;6.010;2022-11-27T06:05:57;10.93;;;5.28;;
70975;SDS011;58635;51.198;6.010;2022-11-27T06:08:22;10.75;;;5.18;;
70975;SDS011;58635;51.198;6.010;2022-11-27T06:10:48;13.52;;;5.55;;
70975;SDS011;58635;51.198;6.010;2022-11-27T06:13:14;9.60;;;4.88;;
70975;SDS011;58635;51.198;6.010;2022-11-27T06:15:40;10.23;;;5.40;;
70975;SDS011;58635;51.198;6.010;2022-11-27T06:18:06;8.55;;;5.07;;
70975;SDS011;58635;51.198;6.010;2022-11-27T06:20:32;10.27;;;5.05;;
70975;SDS011;58635;51.198;6.010;2022-11-27T06:22:57;12.88;;;5.43;;
70975;SDS011;58635;51.198;6.010;2022-11-27T06:25:23;11.15;;;5.22;;
70975;SDS011;58635;51.198;6.010;2022-11-27T06:27:49;9.85;;;5.45;;
70975;SDS011;58635;51.198;6.010;2022-11-27T06:30:15;12.43;;;5.57;;
70975;SDS011;58635;51.198;6.010;2022-11-27T06:32:41;11.40;;;5.65;;
70975;SDS011;58635;51.198;6.010;2022-11-27T06:35:06;8.65;;;5.20;;
70975;SDS011;58635;51.198;6.010;2022-11-27T06:37:32;11.13;;;6.03;;
70975;SDS011;58635;51.198;6.010;2022-11-27T06:39:58;10.93;;;5.63;;
70975;SDS011;58635;51.198;6.010;2022-11-27T06:42:23;9.68;;;5.75;;
70975;SDS011;58635;51.198;6.010;2022-11-27T06:44:49;12.57;;;6.10;;
70975;SDS011;58635;51.198;6.010;2022-11-27T06:47:14;11.35;;;5.85;;
70975;SDS011;58635;51.198;6.010;2022-11-27T06:49:39;13.88;;;7.03;;
70975;SDS011;58635;51.198;6.010;2022-11-27T06:52:05;11.75;;;5.90;;
70975;SDS011;58635;51.198;6.010;2022-11-27T06:54:30;13.50;;;5.68;;
70975;SDS011;58635;51.198;6.010;2022-11-27T06:56:56;11.18;;;5.63;;
70975;SDS011;58635;51.198;6.010;2022-11-27T06:59:22;12.60;;;6.18;;
70975;SDS011;58635;51.198;6.010;2022-11-27T07:01:48;10.35;;;5.80;;
70975;SDS011;58635;51.198;6.010;2022-11-27T07:04:14;13.25;;;6.25;;
70975;SDS011;58635;51.198;6.010;2022-11-27T07:06:40;11.88;;;5.82;;
70975;SDS011;58635;51.198;6.010;2022-11-27T07:09:06;11.80;;;5.97;;
70975;SDS011;58635;51.198;6.010;2022-11-27T07:11:32;9.32;;;5.15;;
70975;SDS011;58635;51.198;6.010;2022-11-27T07:13:58;10.40;;;5.20;;
70975;SDS011;58635;51.198;6.010;2022-11-27T07:16:26;9.02;;;4.93;;
70975;SDS011;58635;51.198;6.010;2022-11-27T07:18:54;9.70;;;5.40;;
70975;SDS011;58635;51.198;6.010;2022-11-27T07:21:21;12.57;;;5.65;;
70975;SDS011;58635;51.198;6.010;2022-11-27T07:23:47;13.73;;;6.60;;
70975;SDS011;58635;51.198;6.010;2022-11-27T07:26:13;12.35;;;6.30;;
70975;SDS011;58635;51.198;6.010;2022-11-27T07:28:40;12.85;;;5.90;;
70975;SDS011;58635;51.198;6.010;2022-11-27T07:31:07;13.10;;;6.05;;
70975;SDS011;58635;51.198;6.010;2022-11-27T07:33:34;12.88;;;7.40;;
70975;SDS011;58635;51.198;6.010;2022-11-27T07:36:00;14.45;;;7.45;;
70975;SDS011;58635;51.198;6.010;2022-11-27T07:38:28;13.05;;;5.75;;
70975;SDS011;58635;51.198;6.010;2022-11-27T07:40:53;11.68;;;4.93;;
70975;SDS011;58635;51.198;6.010;2022-11-27T07:43:19;11.52;;;5.10;;
70975;SDS011;58635;51.198;6.010;2022-11-27T07:45:44;8.27;;;4.68;;
70975;SDS011;58635;51.198;6.010;2022-11-27T07:48:10;11.00;;;4.38;;
70975;SDS011;58635;51.198;6.010;2022-11-27T07:50:35;10.10;;;4.80;;
70975;SDS011;58635;51.198;6.010;2022-11-27T07:53:01;9.65;;;4.57;;
70975;SDS011;58635;51.198;6.010;2022-11-27T07:55:26;9.63;;;4.78;;
70975;SDS011;58635;51.198;6.010;2022-11-27T07:57:51;10.82;;;4.88;;
70975;SDS011;58635;51.198;6.010;2022-11-27T08:00:17;11.52;;;5.03;;
70975;SDS011;58635;51.198;6.010;2022-11-27T08:02:43;7.85;;;4.50;;
70975;SDS011;58635;51.198;6.010;2022-11-27T08:05:08;9.77;;;5.10;;
70975;SDS011;58635;51.198;6.010;2022-11-27T08:07:34;11.73;;;5.63;;
70975;SDS011;58635;51.198;6.010;2022-11-27T08:09:59;10.98;;;4.85;;
70975;SDS011;58635;51.198;6.010;2022-11-27T08:12:25;9.77;;;5.15;;
70975;SDS011;58635;51.198;6.010;2022-11-27T08:14:50;9.02;;;4.70;;
70975;SDS011;58635;51.198;6.010;2022-11-27T08:17:15;9.93;;;4.50;;
70975;SDS011;58635;51.198;6.010;2022-11-27T08:19:41;11.07;;;4.93;;
70975;SDS011;58635;51.198;6.010;2022-11-27T08:22:13;9.18;;;5.20;;
70975;SDS011;58635;51.198;6.010;2022-11-27T08:24:41;11.98;;;5.53;;
70975;SDS011;58635;51.198;6.010;2022-11-27T08:27:07;11.23;;;5.28;;
70975;SDS011;58635;51.198;6.010;2022-11-27T08:29:33;12.13;;;4.93;;
70975;SDS011;58635;51.198;6.010;2022-11-27T08:31:59;10.80;;;4.80;;
70975;SDS011;58635;51.198;6.010;2022-11-27T08:34:24;13.35;;;6.20;;
70975;SDS011;58635;51.198;6.010;2022-11-27T08:36:51;13.82;;;6.72;;
70975;SDS011;58635;51.198;6.010;2022-11-27T08:39:16;11.38;;;6.03;;
70975;SDS011;58635;51.198;6.010;2022-11-27T08:41:42;10.43;;;5.65;;
70975;SDS011;58635;51.198;6.010;2022-11-27T08:44:07;9.88;;;5.40;;
70975;SDS011;58635;51.198;6.010;2022-11-27T08:46:33;8.30;;;4.47;;
70975;SDS011;58635;51.198;6.010;2022-11-27T08:48:58;11.70;;;5.03;;
70975;SDS011;58635;51.198;6.010;2022-11-27T08:51:24;9.50;;;4.65;;
70975;SDS011;58635;51.198;6.010;2022-11-27T08:53:50;8.60;;;4.72;;
70975;SDS011;58635;51.198;6.010;2022-11-27T08:56:23;10.82;;;4.75;;
70975;SDS011;58635;51.198;6.010;2022-11-27T08:58:50;10.20;;;4.60;;
70975;SDS011;58635;51.198;6.010;2022-11-27T09:01:20;9.70;;;4.78;;
70975;SDS011;58635;51.198;6.010;2022-11-27T09:03:47;9.20;;;4.75;;
70975;SDS011;58635;51.198;6.010;2022-11-27T09:06:14;12.15;;;4.90;;
70975;SDS011;58635;51.198;6.010;2022-11-27T09:08:42;9.30;;;5.05;;
70975;SDS011;58635;51.198;6.010;2022-11-27T09:11:09;8.80;;;5.40;;
70975;SDS011;58635;51.198;6.010;2022-11-27T09:13:36;9.88;;;4.97;;
70975;SDS011;58635;51.198;6.010;2022-11-27T09:16:04;11.48;;;6.18;;
70975;SDS011;58635;51.198;6.010;2022-11-27T09:18:34;9.68;;;4.90;;
70975;SDS011;58635;51.198;6.010;2022-11-27T09:21:00;9.40;;;4.68;;
70975;SDS011;58635;51.198;6.010;2022-11-27T09:23:28;14.07;;;5.05;;
70975;SDS011;58635;51.198;6.010;2022-11-27T09:25:57;7.55;;;4.03;;
70975;SDS011;58635;51.198;6.010;2022-11-27T09:28:24;8.00;;;4.38;;
70975;SDS011;58635;51.198;6.010;2022-11-27T09:30:53;7.53;;;4.18;;
70975;SDS011;58635;51.198;6.010;2022-11-27T09:33:19;10.38;;;4.82;;
70975;SDS011;58635;51.198;6.010;2022-11-27T09:35:45;14.13;;;4.78;;
70975;SDS011;58635;51.198;6.010;2022-11-27T09:38:10;10.57;;;4.47;;
70975;SDS011;58635;51.198;6.010;2022-11-27T09:40:35;9.35;;;4.40;;
70975;SDS011;58635;51.198;6.010;2022-11-27T09:43:02;9.90;;;5.43;;
70975;SDS011;58635;51.198;6.010;2022-11-27T09:45:35;12.25;;;6.78;;
70975;SDS011;58635;51.198;6.010;2022-11-27T09:48:07;11.93;;;5.85;;
70975;SDS011;58635;51.198;6.010;2022-11-27T09:50:40;8.38;;;4.47;;
70975;SDS011;58635;51.198;6.010;2022-11-27T09:56:16;8.80;;;4.70;;
70975;SDS011;58635;51.198;6.010;2022-11-27T09:58:58;11.23;;;6.75;;
70975;SDS011;58635;51.198;6.010;2022-11-27T10:01:25;10.30;;;6.80;;
70975;SDS011;58635;51.198;6.010;2022-11-27T10:03:53;8.60;;;4.40;;
70975;SDS011;58635;51.198;6.010;2022-11-27T10:09:01;9.23;;;4.20;;
70975;SDS011;58635;51.198;6.010;2022-11-27T10:14:39;7.43;;;4.50;;
70975;SDS011;58635;51.198;6.010;2022-11-27T10:17:28;9.32;;;4.38;;
70975;SDS011;58635;51.198;6.010;2022-11-27T10:22:56;6.53;;;3.75;;
70975;SDS011;58635;51.198;6.010;2022-11-27T10:25:32;8.52;;;3.70;;
70975;SDS011;58635;51.198;6.010;2022-11-27T10:30:50;7.13;;;3.83;;
70975;SDS011;58635;51.198;6.010;2022-11-27T10:33:21;8.00;;;4.18;;
70975;SDS011;58635;51.198;6.010;2022-11-27T10:35:51;6.38;;;4.05;;
70975;SDS011;58635;51.198;6.010;2022-11-27T10:38:24;8.40;;;3.88;;
70975;SDS011;58635;51.198;6.010;2022-11-27T10:43:40;5.97;;;3.80;;
70975;SDS011;58635;51.198;6.010;2022-11-27T10:46:11;7.50;;;3.83;;
70975;SDS011;58635;51.198;6.010;2022-11-27T10:48:40;8.43;;;3.50;;
70975;SDS011;58635;51.198;6.010;2022-11-27T10:51:17;8.18;;;3.50;;
70975;SDS011;58635;51.198;6.010;2022-11-27T10:53:49;7.80;;;3.70;;
70975;SDS011;58635;51.198;6.010;2022-11-27T10:59:12;8.27;;;3.53;;
70975;SDS011;58635;51.198;6.010;2022-11-27T11:01:42;9.25;;;4.20;;
70975;SDS011;58635;51.198;6.010;2022-11-27T11:04:10;16.27;;;10.07;;
70975;SDS011;58635;51.198;6.010;2022-11-27T11:06:45;8.52;;;4.47;;
70975;SDS011;58635;51.198;6.010;2022-11-27T11:12:07;6.95;;;4.20;;
70975;SDS011;58635;51.198;6.010;2022-11-27T11:14:39;7.45;;;4.50;;
70975;SDS011;58635;51.198;6.010;2022-11-27T11:17:15;8.00;;;4.55;;
70975;SDS011;58635;51.198;6.010;2022-11-27T11:19:41;8.75;;;4.38;;
70975;SDS011;58635;51.198;6.010;2022-11-27T11:22:14;9.07;;;4.50;;
70975;SDS011;58635;51.198;6.010;2022-11-27T11:24:44;7.60;;;4.43;;
70975;SDS011;58635;51.198;6.010;2022-11-27T11:27:16;7.93;;;4.78;;
70975;SDS011;58635;51.198;6.010;2022-11-27T11:30:04;7.53;;;4.22;;
70975;SDS011;58635;51.198;6.010;2022-11-27T11:32:39;6.18;;;3.75;;
70975;SDS011;58635;51.198;6.010;2022-11-27T11:35:26;6.47;;;3.60;;
70975;SDS011;58635;51.198;6.010;2022-11-27T11:37:52;8.15;;;4.05;;
70975;SDS011;58635;51.198;6.010;2022-11-27T11:40:30;7.72;;;3.97;;
70975;SDS011;58635;51.198;6.010;2022-11-27T11:42:58;5.93;;;3.45;;
70975;SDS011;58635;51.198;6.010;2022-11-27T11:45:27;7.60;;;4.00;;
70975;SDS011;58635;51.198;6.010;2022-11-27T11:47:55;8.68;;;4.00;;
70975;SDS011;58635;51.198;6.010;2022-11-27T11:53:14;9.00;;;3.80;;
70975;SDS011;58635;51.198;6.010;2022-11-27T12:12:02;4.80;;;3.13;;
70975;SDS011;58635;51.198;6.010;2022-11-27T12:14:38;6.80;;;3.47;;
70975;SDS011;58635;51.198;6.010;2022-11-27T12:17:28;7.65;;;3.20;;
70975;SDS011;58635;51.198;6.010;2022-11-27T12:20:18;6.28;;;3.63;;
70975;SDS011;58635;51.198;6.010;2022-11-27T12:42:07;7.95;;;3.78;;
70975;SDS011;58635;51.198;6.010;2022-11-27T12:44:49;6.78;;;3.67;;
70975;SDS011;58635;51.198;6.010;2022-11-27T12:47:30;9.77;;;4.60;;
70975;SDS011;58635;51.198;6.010;2022-11-27T12:50:27;7.07;;;4.03;;
70975;SDS011;58635;51.198;6.010;2022-11-27T12:53:07;6.60;;;3.67;;
70975;SDS011;58635;51.198;6.010;2022-11-27T12:55:41;6.20;;;3.45;;
70975;SDS011;58635;51.198;6.010;2022-11-27T12:58:20;6.60;;;3.03;;
70975;SDS011;58635;51.198;6.010;2022-11-27T13:00:51;6.55;;;3.40;;
70975;SDS011;58635;51.198;6.010;2022-11-27T13:03:27;6.32;;;3.40;;
70975;SDS011;58635;51.198;6.010;2022-11-27T13:06:01;5.53;;;3.05;;
70975;SDS011;58635;51.198;6.010;2022-11-27T13:11:33;6.93;;;3.67;;
70975;SDS011;58635;51.198;6.010;2022-11-27T13:17:01;5.38;;;3.42;;
70975;SDS011;58635;51.198;6.010;2022-11-27T13:19:46;5.00;;;3.13;;
70975;SDS011;58635;51.198;6.010;2022-11-27T13:22:15;5.65;;;3.10;;
70975;SDS011;58635;51.198;6.010;2022-11-27T13:24:55;8.13;;;4.07;;
70975;SDS011;58635;51.198;6.010;2022-11-27T13:27:24;9.00;;;4.50;;
70975;SDS011;58635;51.198;6.010;2022-11-27T13:32:31;7.72;;;4.72;;
70975;SDS011;58635;51.198;6.010;2022-11-27T13:35:03;7.22;;;4.40;;
70975;SDS011;58635;51.198;6.010;2022-11-27T13:37:33;7.72;;;4.40;;
70975;SDS011;58635;51.198;6.010;2022-11-27T13:40:06;10.05;;;5.00;;
70975;SDS011;58635;51.198;6.010;2022-11-27T13:42:43;10.65;;;5.30;;
70975;SDS011;58635;51.198;6.010;2022-11-27T13:45:23;8.10;;;4.00;;
70975;SDS011;58635;51.198;6.010;2022-11-27T13:47:52;5.78;;;3.20;;
70975;SDS011;58635;51.198;6.010;2022-11-27T13:50:19;8.55;;;4.15;;
70975;SDS011;58635;51.198;6.010;2022-11-27T13:53:02;7.40;;;3.83;;
70975;SDS011;58635;51.198;6.010;2022-11-27T13:55:37;10.55;;;5.00;;
70975;SDS011;58635;51.198;6.010;2022-11-27T13:58:05;9.70;;;5.07;;
70975;SDS011;58635;51.198;6.010;2022-11-27T14:00:35;9.70;;;5.45;;
70975;SDS011;58635;51.198;6.010;2022-11-27T14:03:06;7.47;;;3.85;;
70975;SDS011;58635;51.198;6.010;2022-11-27T14:05:40;7.30;;;4.18;;
70975;SDS011;58635;51.198;6.010;2022-11-27T14:08:24;8.15;;;4.05;;
70975;SDS011;58635;51.198;6.010;2022-11-27T14:13:36;7.05;;;3.17;;
70975;SDS011;58635;51.198;6.010;2022-11-27T14:18:59;4.65;;;3.10;;
70975;SDS011;58635;51.198;6.010;2022-11-27T14:24:03;5.30;;;2.83;;
70975;SDS011;58635;51.198;6.010;2022-11-27T14:26:48;6.13;;;2.90;;
70975;SDS011;58635;51.198;6.010;2022-11-27T14:29:14;5.25;;;3.17;;
70975;SDS011;58635;51.198;6.010;2022-11-27T14:31:42;5.28;;;2.53;;
70975;SDS011;58635;51.198;6.010;2022-11-27T14:36:55;6.82;;;3.28;;
70975;SDS011;58635;51.198;6.010;2022-11-27T14:39:31;4.93;;;2.90;;
70975;SDS011;58635;51.198;6.010;2022-11-27T14:42:02;7.20;;;3.13;;
70975;SDS011;58635;51.198;6.010;2022-11-27T14:44:31;8.07;;;3.25;;
70975;SDS011;58635;51.198;6.010;2022-11-27T14:46:58;6.43;;;3.40;;
70975;SDS011;58635;51.198;6.010;2022-11-27T14:49:27;5.13;;;2.83;;
70975;SDS011;58635;51.198;6.010;2022-11-27T14:51:55;8.43;;;3.30;;
70975;SDS011;58635;51.198;6.010;2022-11-27T14:54:36;5.38;;;3.10;;
70975;SDS011;58635;51.198;6.010;2022-11-27T14:57:03;13.80;;;4.18;;
70975;SDS011;58635;51.198;6.010;2022-11-27T14:59:33;8.95;;;3.25;;
70975;SDS011;58635;51.198;6.010;2022-11-27T15:02:12;12.65;;;4.25;;
70975;SDS011;58635;51.198;6.010;2022-11-27T15:04:42;9.02;;;3.65;;
70975;SDS011;58635;51.198;6.010;2022-11-27T15:07:12;11.60;;;4.25;;
70975;SDS011;58635;51.198;6.010;2022-11-27T15:09:43;6.93;;;4.57;;
70975;SDS011;58635;51.198;6.010;2022-11-27T15:12:15;7.30;;;4.22;;
70975;SDS011;58635;51.198;6.010;2022-11-27T15:17:38;40.58;;;6.15;;
70975;SDS011;58635;51.198;6.010;2022-11-27T15:20:14;6.82;;;4.45;;
70975;SDS011;58635;51.198;6.010;2022-11-27T15:22:49;19.67;;;5.25;;
70975;SDS011;58635;51.198;6.010;2022-11-27T15:30:50;11.38;;;3.85;;
70975;SDS011;58635;51.198;6.010;2022-11-27T15:33:26;7.00;;;3.65;;
70975;SDS011;58635;51.198;6.010;2022-11-27T15:35:54;13.38;;;3.50;;
70975;SDS011;58635;51.198;6.010;2022-11-27T15:38:41;5.70;;;3.28;;
70975;SDS011;58635;51.198;6.010;2022-11-27T15:41:23;5.22;;;3.03;;
70975;SDS011;58635;51.198;6.010;2022-11-27T15:43:50;7.45;;;3.53;;
70975;SDS011;58635;51.198;6.010;2022-11-27T15:46:19;4.90;;;3.38;;
70975;SDS011;58635;51.198;6.010;2022-11-27T15:48:49;6.45;;;3.70;;
70975;SDS011;58635;51.198;6.010;2022-11-27T15:51:15;6.40;;;3.33;;
70975;SDS011;58635;51.198;6.010;2022-11-27T15:53:40;7.13;;;3.60;;
70975;SDS011;58635;51.198;6.010;2022-11-27T15:56:06;4.93;;;3.20;;
70975;SDS011;58635;51.198;6.010;2022-11-27T15:58:31;6.30;;;3.45;;
70975;SDS011;58635;51.198;6.010;2022-11-27T16:00:57;5.55;;;3.25;;
70975;SDS011;58635;51.198;6.010;2022-11-27T16:03:27;6.95;;;3.60;;
70975;SDS011;58635;51.198;6.010;2022-11-27T16:05:55;9.13;;;3.60;;
70975;SDS011;58635;51.198;6.010;2022-11-27T16:08:20;6.15;;;3.67;;
70975;SDS011;58635;51.198;6.010;2022-11-27T16:10:45;6.20;;;3.28;;
70975;SDS011;58635;51.198;6.010;2022-11-27T16:13:11;6.43;;;3.38;;
70975;SDS011;58635;51.198;6.010;2022-11-27T16:15:38;5.03;;;2.72;;
70975;SDS011;58635;51.198;6.010;2022-11-27T16:18:03;7.10;;;4.07;;
70975;SDS011;58635;51.198;6.010;2022-11-27T16:20:32;4.72;;;2.90;;
70975;SDS011;58635;51.198;6.010;2022-11-27T16:22:58;5.40;;;3.60;;
70975;SDS011;58635;51.198;6.010;2022-11-27T16:25:23;5.38;;;3.33;;
70975;SDS011;58635;51.198;6.010;2022-11-27T16:27:49;5.45;;;3.65;;
70975;SDS011;58635;51.198;6.010;2022-11-27T16:30:15;7.93;;;4.18;;
70975;SDS011;58635;51.198;6.010;2022-11-27T16:32:43;8.30;;;4.72;;
70975;SDS011;58635;51.198;6.010;2022-11-27T16:35:09;7.93;;;4.53;;
70975;SDS011;58635;51.198;6.010;2022-11-27T16:37:35;6.90;;;4.45;;
70975;SDS011;58635;51.198;6.010;2022-11-27T16:40:01;6.53;;;4.60;;
70975;SDS011;58635;51.198;6.010;2022-11-27T16:42:27;8.30;;;4.30;;
70975;SDS011;58635;51.198;6.010;2022-11-27T16:44:52;8.30;;;4.07;;
70975;SDS011;58635;51.198;6.010;2022-11-27T16:47:18;6.20;;;3.40;;
70975;SDS011;58635;51.198;6.010;2022-11-27T16:49:44;7.15;;;3.95;;
70975;SDS011;58635;51.198;6.010;2022-11-27T16:52:12;4.68;;;2.95;;
70975;SDS011;58635;51.198;6.010;2022-11-27T16:54:40;7.80;;;3.40;;
70975;SDS011;58635;51.198;6.010;2022-11-27T16:57:05;5.88;;;3.28;;
70975;SDS011;58635;51.198;6.010;2022-11-27T16:59:31;6.80;;;3.38;;
70975;SDS011;58635;51.198;6.010;2022-11-27T17:01:59;5.25;;;2.90;;